Time;durP1;ratioP1;P1;durP2;ratioP2;P2;SDS_P1;SDS_P2;PMS_P1;PMS_P2;Temp;Humidity;BMP_temperature;BMP_pressure;BME280_temperature;BME280_humidity;BME280_pressure;Samples;Min_cycle;Max_cycle;Signal;HPM_P1;HPM_P2
2023/08/20 00:02:08;;;;;;;13.57;11.80;;;25.30;72.00;;;;;;5096017;28;20069;-59
2023/08/20 00:04:36;;;;;;;15.70;13.48;;;25.30;72.10;;;;;;5096296;28;20076;-60
2023/08/20 00:07:03;;;;;;;16.42;12.45;;;25.30;72.10;;;;;;5096310;28;20031;-59
2023/08/20 00:09:30;;;;;;;14.88;13.25;;;25.20;72.20;;;;;;5096005;28;20016;-59
2023/08/20 00:11:58;;;;;;;14.77;12.25;;;25.20;72.20;;;;;;5096143;28;20028;-60
2023/08/20 00:15:04;;;;;;;14.75;12.60;;;25.20;72.20;;;;;;5096402;28;20027;-59
2023/08/20 00:17:38;;;;;;;17.92;14.25;;;25.20;72.30;;;;;;5096198;28;20035;-60
2023/08/20 00:20:10;;;;;;;15.43;13.07;;;25.10;72.20;;;;;;5096131;28;20024;-60
2023/08/20 00:22:37;;;;;;;19.40;15.65;;;25.00;72.30;;;;;;5095868;28;20387;-60
2023/08/20 00:25:05;;;;;;;18.30;15.80;;;24.90;72.50;;;;;;5096054;28;20038;-59
2023/08/20 00:27:34;;;;;;;15.75;13.63;;;24.90;72.80;;;;;;5095974;28;20020;-60
2023/08/20 00:30:00;;;;;;;14.73;13.20;;;24.80;72.90;;;;;;5096014;28;20444;-59
2023/08/20 00:32:26;;;;;;;18.17;15.80;;;24.70;73.10;;;;;;5095545;28;20022;-59
2023/08/20 00:34:52;;;;;;;16.83;14.73;;;24.70;73.20;;;;;;5095854;28;20093;-59
2023/08/20 00:37:18;;;;;;;16.75;14.63;;;24.60;73.40;;;;;;5095630;28;20051;-59
2023/08/20 00:39:44;;;;;;;18.42;14.90;;;24.60;73.40;;;;;;5095588;28;20027;-59
2023/08/20 00:42:10;;;;;;;17.38;14.85;;;24.60;73.40;;;;;;5095682;28;20085;-60
2023/08/20 00:44:36;;;;;;;18.52;15.45;;;24.60;73.50;;;;;;5095495;28;20016;-59
2023/08/20 00:47:04;;;;;;;17.98;16.08;;;24.60;73.60;;;;;;5095500;28;20460;-60
2023/08/20 00:49:31;;;;;;;19.17;15.38;;;24.60;73.70;;;;;;5095330;28;20047;-60
2023/08/20 00:51:58;;;;;;;17.75;15.23;;;24.50;73.70;;;;;;5095390;28;20056;-59
2023/08/20 00:54:25;;;;;;;24.35;17.30;;;24.50;73.90;;;;;;5095857;28;20063;-59
2023/08/20 00:56:51;;;;;;;19.13;16.90;;;24.50;73.90;;;;;;5095427;28;20020;-60
2023/08/20 00:59:18;;;;;;;21.08;17.33;;;24.40;74.20;;;;;;5095360;28;20024;-59
2023/08/20 01:01:44;;;;;;;21.00;16.70;;;24.50;74.10;;;;;;5095763;28;20020;-59
2023/08/20 01:04:10;;;;;;;21.30;16.58;;;24.40;74.00;;;;;;5095807;28;20030;-60
2023/08/20 01:07:03;;;;;;;26.10;19.60;;;24.50;74.20;;;;;;5095807;28;20107;-59
2023/08/20 01:09:36;;;;;;;21.02;15.38;;;24.50;74.30;;;;;;5095581;28;20043;-59
2023/08/20 01:12:03;;;;;;;18.57;15.97;;;24.40;74.20;;;;;;5095432;28;20074;-59
2023/08/20 01:14:30;;;;;;;20.15;15.45;;;24.40;74.20;;;;;;5095127;28;20038;-59
2023/08/20 01:16:55;;;;;;;18.02;14.77;;;24.40;74.20;;;;;;5095145;28;20131;-59
2023/08/20 01:19:23;;;;;;;21.63;16.88;;;24.40;74.20;;;;;;5095712;28;20086;-59
2023/08/20 01:22:00;;;;;;;18.42;14.85;;;24.40;74.20;;;;;;5095044;28;20113;-59
2023/08/20 01:24:45;;;;;;;16.55;14.05;;;24.40;74.20;;;;;;5094996;28;20035;-59
2023/08/20 01:27:20;;;;;;;16.35;13.35;;;24.40;74.50;;;;;;5095370;28;20044;-60
2023/08/20 01:29:46;;;;;;;20.08;14.95;;;24.40;74.30;;;;;;5095406;28;20076;-59
2023/08/20 01:32:13;;;;;;;16.23;13.52;;;24.40;74.30;;;;;;5094997;28;20028;-59
2023/08/20 01:34:39;;;;;;;19.27;16.10;;;24.40;74.20;;;;;;5097096;28;20399;-59
2023/08/20 01:37:05;;;;;;;25.20;17.67;;;24.50;74.70;;;;;;5098941;28;20024;-59
2023/08/20 01:39:31;;;;;;;17.77;14.95;;;24.50;74.40;;;;;;5098861;28;20022;-59
2023/08/20 01:41:59;;;;;;;18.23;15.05;;;24.50;74.40;;;;;;5098785;28;20016;-59
2023/08/20 01:44:26;;;;;;;22.30;17.42;;;24.40;74.20;;;;;;5098598;28;20061;-60
2023/08/20 01:46:52;;;;;;;18.40;14.90;;;24.40;74.40;;;;;;5098653;28;20051;-59
2023/08/20 01:49:18;;;;;;;22.15;17.15;;;24.50;74.20;;;;;;5098557;28;20102;-59
2023/08/20 01:51:44;;;;;;;20.67;15.25;;;24.50;74.60;;;;;;5098596;28;20073;-59
2023/08/20 01:54:10;;;;;;;18.33;14.52;;;24.50;74.40;;;;;;5098824;28;20059;-59
2023/08/20 01:56:36;;;;;;;17.92;15.10;;;24.50;74.00;;;;;;5099109;28;20021;-60
2023/08/20 01:59:02;;;;;;;19.00;15.57;;;24.40;73.80;;;;;;5098551;28;20461;-59
2023/08/20 02:01:28;;;;;;;17.20;15.00;;;24.50;73.70;;;;;;5097398;28;20441;-59
2023/08/20 02:03:54;;;;;;;18.98;15.32;;;24.50;73.70;;;;;;5098468;28;20102;-59
2023/08/20 02:06:20;;;;;;;16.58;14.52;;;24.40;73.70;;;;;;5098930;28;20102;-59
2023/08/20 02:08:45;;;;;;;15.57;13.27;;;24.40;73.70;;;;;;5098961;28;20055;-59
2023/08/20 02:11:12;;;;;;;18.27;14.60;;;24.40;73.80;;;;;;5098330;28;20445;-60
2023/08/20 02:13:38;;;;;;;17.73;13.82;;;24.40;73.70;;;;;;5098147;28;20132;-59
2023/08/20 02:16:05;;;;;;;14.70;12.38;;;24.30;73.80;;;;;;5098191;28;20558;-59
2023/08/20 02:18:31;;;;;;;14.98;12.02;;;24.40;73.80;;;;;;5098203;28;20425;-59
2023/08/20 02:20:57;;;;;;;14.60;12.60;;;24.30;73.80;;;;;;5098132;28;20016;-59
2023/08/20 02:23:23;;;;;;;17.75;13.40;;;24.40;73.80;;;;;;5097993;28;20413;-59
2023/08/20 02:25:49;;;;;;;15.43;12.60;;;24.30;73.80;;;;;;5098005;28;20093;-59
2023/08/20 02:28:15;;;;;;;14.52;12.25;;;24.30;73.80;;;;;;5097997;28;20024;-59
2023/08/20 02:30:42;;;;;;;14.75;12.45;;;24.30;74.00;;;;;;5097975;28;20035;-59
2023/08/20 02:33:09;;;;;;;17.40;13.70;;;24.20;74.00;;;;;;5097656;28;20088;-59
2023/08/20 02:35:39;;;;;;;17.20;13.40;;;24.20;74.00;;;;;;5097772;28;20016;-59
2023/08/20 02:38:06;;;;;;;17.05;14.68;;;24.10;74.10;;;;;;5098076;28;20020;-59
2023/08/20 02:40:32;;;;;;;17.45;14.05;;;24.10;74.20;;;;;;5097170;28;20053;-59
2023/08/20 02:42:58;;;;;;;18.55;13.88;;;24.10;74.00;;;;;;5097602;28;20472;-60
2023/08/20 02:45:24;;;;;;;17.42;13.63;;;24.10;74.10;;;;;;5096396;28;20035;-59
2023/08/20 02:47:50;;;;;;;16.20;13.32;;;24.10;73.90;;;;;;5097563;28;20052;-59
2023/08/20 02:50:16;;;;;;;14.52;12.52;;;24.00;73.90;;;;;;5097930;28;20026;-59
2023/08/20 02:52:42;;;;;;;14.30;11.43;;;24.00;74.10;;;;;;5096365;28;20028;-59
2023/08/20 02:55:09;;;;;;;13.25;11.75;;;24.00;74.00;;;;;;5097491;28;20020;-59
2023/08/20 02:57:34;;;;;;;15.55;11.95;;;23.90;74.00;;;;;;5097455;28;20028;-59
2023/08/20 03:00:00;;;;;;;14.02;11.57;;;24.00;74.00;;;;;;5097366;28;20392;-59
2023/08/20 03:02:26;;;;;;;14.57;12.00;;;24.00;73.90;;;;;;5097245;28;20020;-60
2023/08/20 03:04:53;;;;;;;13.43;11.30;;;24.00;74.00;;;;;;5097500;28;20020;-59
2023/08/20 03:07:19;;;;;;;12.90;11.35;;;24.00;74.00;;;;;;5097480;28;20042;-59
2023/08/20 03:09:45;;;;;;;16.55;12.65;;;23.90;73.90;;;;;;5097435;28;20028;-60
2023/08/20 03:12:11;;;;;;;15.43;11.73;;;23.90;73.90;;;;;;5097286;28;20154;-59
2023/08/20 03:14:37;;;;;;;17.45;11.90;;;24.00;73.80;;;;;;5097060;28;20452;-59
2023/08/20 03:17:03;;;;;;;14.98;12.95;;;23.90;73.80;;;;;;5097064;28;20020;-59
2023/08/20 03:19:34;;;;;;;13.65;11.48;;;23.90;73.90;;;;;;5096881;28;20024;-60
2023/08/20 03:22:00;;;;;;;13.88;11.98;;;23.90;73.90;;;;;;5096860;28;20059;-59
2023/08/20 03:24:26;;;;;;;15.23;11.02;;;23.90;74.00;;;;;;5097440;28;20027;-60
2023/08/20 03:26:52;;;;;;;12.88;10.90;;;23.90;74.10;;;;;;5097384;28;20028;-59
2023/08/20 03:29:18;;;;;;;15.73;11.65;;;23.80;74.20;;;;;;5096797;28;20060;-60
2023/08/20 03:31:44;;;;;;;12.50;11.07;;;23.80;74.20;;;;;;5096702;28;20032;-59
2023/08/20 03:34:10;;;;;;;12.05;10.40;;;23.80;74.30;;;;;;5095587;28;20028;-59
2023/08/20 03:36:35;;;;;;;11.85;10.15;;;23.80;74.30;;;;;;5096667;28;20031;-59
2023/08/20 03:39:03;;;;;;;12.68;10.20;;;23.80;74.30;;;;;;5096608;28;20024;-59
2023/08/20 03:41:29;;;;;;;12.35;9.82;;;23.80;74.20;;;;;;5096467;28;20089;-59
2023/08/20 03:43:55;;;;;;;12.45;9.93;;;23.80;74.20;;;;;;5097068;28;20027;-59
2023/08/20 03:46:21;;;;;;;13.07;10.23;;;23.80;74.20;;;;;;5096455;28;20028;-59
2023/08/20 03:48:47;;;;;;;13.35;11.02;;;23.80;74.20;;;;;;5096428;28;20044;-59
2023/08/20 03:51:13;;;;;;;12.00;10.18;;;23.80;74.20;;;;;;5096910;28;20209;-59
2023/08/20 03:53:39;;;;;;;14.80;10.50;;;23.80;74.20;;;;;;5096246;28;20020;-60
2023/08/20 03:56:05;;;;;;;13.65;10.65;;;23.80;74.20;;;;;;5095257;28;20031;-59
2023/08/20 03:58:31;;;;;;;12.45;10.35;;;23.80;74.20;;;;;;5096519;28;20106;-60
2023/08/20 04:00:57;;;;;;;11.95;10.00;;;23.80;74.30;;;;;;5095612;28;20020;-59
2023/08/20 04:03:23;;;;;;;12.10;10.23;;;23.80;74.30;;;;;;5096401;28;20468;-59
2023/08/20 04:05:51;;;;;;;14.52;11.45;;;23.80;74.20;;;;;;5096159;28;20039;-59
2023/08/20 04:08:17;;;;;;;15.23;11.10;;;23.80;74.20;;;;;;5096069;28;20020;-59
2023/08/20 04:10:45;;;;;;;14.93;11.38;;;23.90;74.20;;;;;;5096306;28;20398;-59
2023/08/20 04:13:13;;;;;;;13.75;10.88;;;23.80;74.30;;;;;;5096395;28;20019;-59
2023/08/20 04:15:41;;;;;;;13.52;11.60;;;23.80;74.30;;;;;;5096212;28;20070;-59
2023/08/20 04:18:07;;;;;;;14.57;11.07;;;23.80;74.40;;;;;;5096211;28;20031;-59
2023/08/20 04:20:33;;;;;;;14.88;11.38;;;23.80;74.30;;;;;;5096023;28;20158;-59
2023/08/20 04:22:59;;;;;;;15.02;11.23;;;23.80;74.30;;;;;;5095749;28;20032;-59
2023/08/20 04:25:25;;;;;;;13.65;11.00;;;23.80;74.30;;;;;;5096087;28;20023;-59
2023/08/20 04:27:51;;;;;;;16.50;12.02;;;23.80;74.30;;;;;;5095753;28;20035;-59
2023/08/20 04:30:17;;;;;;;13.70;11.27;;;23.90;74.20;;;;;;5095631;28;20028;-59
2023/08/20 04:32:43;;;;;;;13.27;11.55;;;23.90;74.20;;;;;;5095524;28;20024;-59
2023/08/20 04:35:10;;;;;;;13.90;11.07;;;23.90;74.20;;;;;;5095918;28;20026;-59
2023/08/20 04:37:36;;;;;;;13.73;11.43;;;23.80;74.20;;;;;;5095486;28;20038;-59
2023/08/20 04:40:05;;;;;;;14.52;11.02;;;23.80;74.20;;;;;;5094886;28;20028;-59
2023/08/20 04:42:32;;;;;;;15.05;11.20;;;23.80;74.40;;;;;;5095598;28;20464;-59
2023/08/20 04:44:58;;;;;;;13.90;11.77;;;23.90;74.40;;;;;;5095491;28;20028;-59
2023/08/20 04:47:24;;;;;;;13.18;11.15;;;23.90;74.50;;;;;;5095734;28;20490;-59
2023/08/20 04:49:50;;;;;;;13.95;11.00;;;24.00;74.40;;;;;;5095242;28;20365;-59
2023/08/20 04:52:16;;;;;;;14.02;11.52;;;24.00;74.30;;;;;;5095346;28;20062;-59
2023/08/20 04:54:44;;;;;;;13.05;10.95;;;24.20;74.20;;;;;;5095819;28;20035;-60
2023/08/20 04:57:10;;;;;;;13.82;11.73;;;24.20;74.10;;;;;;5095358;28;20031;-60
2023/08/20 04:59:36;;;;;;;15.68;11.50;;;24.30;74.00;;;;;;5095834;28;20024;-59
2023/08/20 05:02:02;;;;;;;13.43;10.70;;;24.40;73.80;;;;;;5095479;28;20340;-59
2023/08/20 05:04:28;;;;;;;15.45;11.20;;;24.50;73.60;;;;;;5095313;28;20024;-59
2023/08/20 05:06:54;;;;;;;16.10;11.20;;;24.60;73.50;;;;;;5095225;28;20338;-60
2023/08/20 05:09:20;;;;;;;14.95;12.13;;;24.70;73.40;;;;;;5096946;28;20436;-59
2023/08/20 05:11:46;;;;;;;15.00;11.23;;;25.20;73.10;;;;;;5099618;28;20039;-60
2023/08/20 05:14:12;;;;;;;15.65;11.90;;;26.00;71.80;;;;;;5099310;28;20028;-60
2023/08/20 05:16:38;;;;;;;14.02;11.85;;;26.90;70.00;;;;;;5099327;28;20115;-60
2023/08/20 05:19:04;;;;;;;13.27;11.27;;;27.90;67.70;;;;;;5081403;28;20074;-60
2023/08/20 05:21:31;;;;;;;15.95;11.75;;;28.70;65.40;;;;;;5099149;28;20103;-60
2023/08/20 05:23:57;;;;;;;13.35;10.68;;;29.60;63.60;;;;;;5099754;28;20024;-60
2023/08/20 05:26:22;;;;;;;12.55;10.88;;;30.40;61.80;;;;;;5099140;28;20451;-60
2023/08/20 05:28:48;;;;;;;14.45;10.57;;;31.20;60.10;;;;;;5099318;28;20058;-60
2023/08/20 05:31:14;;;;;;;12.95;10.63;;;32.00;58.10;;;;;;5099316;28;20027;-60
2023/08/20 05:33:40;;;;;;;12.25;10.35;;;32.80;56.60;;;;;;5099410;28;20032;-60
2023/08/20 05:36:06;;;;;;;10.95;9.85;;;33.50;55.30;;;;;;5099492;28;20027;-60
2023/08/20 05:38:32;;;;;;;12.50;10.18;;;34.30;53.80;;;;;;5099227;28;20016;-60
2023/08/20 05:40:58;;;;;;;11.10;9.45;;;35.00;52.40;;;;;;5099368;28;20039;-60
2023/08/20 05:43:24;;;;;;;14.35;9.40;;;35.80;50.90;;;;;;5098798;28;20020;-60
2023/08/20 05:45:50;;;;;;;11.55;9.88;;;36.40;49.70;;;;;;5099296;28;20076;-60
2023/08/20 05:48:16;;;;;;;10.32;9.23;;;37.00;48.50;;;;;;5098872;28;20054;-60
2023/08/20 05:50:42;;;;;;;11.40;9.50;;;37.60;47.30;;;;;;5098679;28;20444;-61
2023/08/20 05:53:08;;;;;;;11.20;8.73;;;38.30;46.30;;;;;;5098730;28;20115;-61
2023/08/20 05:55:34;;;;;;;10.63;8.93;;;38.90;45.10;;;;;;5098650;28;20441;-58
2023/08/20 05:58:00;;;;;;;11.65;9.00;;;39.40;44.40;;;;;;5099086;28;20024;-61
2023/08/20 06:00:26;;;;;;;11.40;8.48;;;40.00;43.30;;;;;;5098767;28;20437;-60
2023/08/20 06:02:52;;;;;;;11.82;9.10;;;40.50;42.50;;;;;;5098892;28;20496;-60
2023/08/20 06:05:17;;;;;;;11.63;8.50;;;41.00;41.60;;;;;;5098352;28;20353;-61
2023/08/20 06:07:43;;;;;;;9.57;8.57;;;41.60;40.90;;;;;;5098380;28;20024;-61
2023/08/20 06:10:11;;;;;;;10.02;8.85;;;42.10;40.00;;;;;;5098281;28;20408;-60
2023/08/20 06:12:37;;;;;;;11.00;8.82;;;42.60;39.20;;;;;;5098015;28;20107;-61
2023/08/20 06:15:04;;;;;;;10.57;9.00;;;43.10;38.60;;;;;;5098152;28;20396;-59
2023/08/20 06:17:30;;;;;;;9.43;8.30;;;43.50;38.00;;;;;;5098044;28;20077;-59
2023/08/20 06:19:56;;;;;;;9.85;8.18;;;44.00;37.50;;;;;;5097894;28;20020;-59
2023/08/20 06:22:22;;;;;;;9.40;8.40;;;44.40;36.80;;;;;;5097830;28;20035;-59
2023/08/20 06:24:48;;;;;;;10.90;8.82;;;44.90;36.40;;;;;;5098280;28;20027;-59
2023/08/20 06:27:14;;;;;;;10.38;8.13;;;45.20;35.70;;;;;;5097966;28;20024;-59
2023/08/20 06:29:40;;;;;;;10.82;8.02;;;45.50;35.20;;;;;;5097850;28;20035;-59
2023/08/20 06:32:06;;;;;;;10.25;8.27;;;45.90;34.50;;;;;;5098312;28;20028;-59
2023/08/20 06:34:35;;;;;;;10.15;8.05;;;46.10;33.30;;;;;;5097728;28;20069;-59
2023/08/20 06:37:01;;;;;;;9.13;7.88;;;46.40;33.10;;;;;;5097690;28;20028;-59
2023/08/20 06:39:27;;;;;;;10.55;8.20;;;46.80;32.70;;;;;;5097740;28;20020;-59
2023/08/20 06:41:53;;;;;;;9.75;8.15;;;47.30;32.30;;;;;;5097502;28;20020;-59
2023/08/20 06:44:20;;;;;;;10.07;7.55;;;47.70;31.80;;;;;;5098043;28;20038;-59
2023/08/20 06:46:46;;;;;;;10.80;8.10;;;48.00;31.40;;;;;;5097669;28;20111;-60
2023/08/20 06:49:12;;;;;;;8.68;7.40;;;48.20;30.80;;;;;;5097142;28;20075;-59
2023/08/20 06:51:38;;;;;;;9.30;8.30;;;48.30;30.80;;;;;;5097738;28;20020;-59
2023/08/20 06:54:06;;;;;;;8.45;7.45;;;48.30;30.60;;;;;;5097680;28;20035;-59
2023/08/20 06:56:32;;;;;;;9.35;7.57;;;48.50;30.50;;;;;;5097501;28;20066;-59
2023/08/20 06:58:58;;;;;;;8.63;7.72;;;48.70;30.10;;;;;;5097219;28;20054;-59
2023/08/20 07:01:25;;;;;;;8.52;7.40;;;48.80;29.80;;;;;;5097404;28;20080;-59
2023/08/20 07:03:51;;;;;;;8.82;7.70;;;48.90;29.40;;;;;;5097002;28;20043;-59
2023/08/20 07:06:18;;;;;;;10.20;7.90;;;48.90;29.00;;;;;;5097299;28;20404;-59
2023/08/20 07:08:44;;;;;;;8.60;7.68;;;48.80;28.90;;;;;;5096910;28;20032;-59
2023/08/20 07:11:10;;;;;;;9.82;7.95;;;48.80;28.60;;;;;;5096954;28;20100;-59
2023/08/20 07:13:36;;;;;;;8.68;7.60;;;48.90;28.70;;;;;;5096848;28;20107;-59
2023/08/20 07:16:03;;;;;;;9.25;7.90;;;49.10;28.30;;;;;;5096772;28;20472;-59
2023/08/20 07:18:29;;;;;;;8.25;7.43;;;49.20;28.30;;;;;;5095777;28;20077;-59
2023/08/20 07:20:56;;;;;;;9.40;7.75;;;48.90;28.20;;;;;;5096765;28;20091;-59
2023/08/20 07:23:22;;;;;;;9.80;7.88;;;47.80;28.70;;;;;;5096679;28;20032;-59
2023/08/20 07:25:51;;;;;;;9.73;8.55;;;46.20;29.80;;;;;;5097015;28;20036;-59
2023/08/20 07:28:56;;;;;;;9.85;8.57;;;44.80;31.20;;;;;;5096756;28;20020;-59
2023/08/20 07:31:07;;;;;;;9.43;8.50;;;43.40;32.40;;;;;;5096179;28;20039;-59
2023/08/20 07:33:33;;;;;;;12.90;8.75;;;42.30;33.90;;;;;;5096318;28;20103;-59
2023/08/20 07:35:59;;;;;;;10.55;8.40;;;41.40;35.00;;;;;;5096606;28;20504;-59
2023/08/20 07:38:25;;;;;;;12.18;9.32;;;40.70;35.90;;;;;;5095533;28;20027;-59
2023/08/20 07:40:50;;;;;;;9.05;7.93;;;40.20;36.60;;;;;;5096770;28;20012;-59
2023/08/20 07:43:16;;;;;;;11.60;8.63;;;39.80;37.40;;;;;;5096542;28;20028;-58
2023/08/20 07:45:43;;;;;;;11.18;8.93;;;39.50;37.90;;;;;;5096669;28;20038;-59
2023/08/20 07:48:09;;;;;;;10.50;8.77;;;39.30;38.10;;;;;;5096573;28;20056;-59
2023/08/20 07:50:35;;;;;;;10.93;9.82;;;39.10;38.50;;;;;;5096877;28;20061;-59
2023/08/20 07:53:01;;;;;;;10.50;8.88;;;38.90;38.90;;;;;;5096411;28;20035;-59
2023/08/20 07:55:27;;;;;;;11.40;10.20;;;38.40;39.40;;;;;;5096252;28;20016;-59
2023/08/20 07:57:53;;;;;;;11.45;9.82;;;38.00;39.90;;;;;;5096222;28;20031;-59
2023/08/20 08:00:19;;;;;;;11.60;10.40;;;37.30;40.80;;;;;;5096569;28;20027;-60
2023/08/20 08:02:44;;;;;;;10.75;9.00;;;36.90;41.60;;;;;;5096208;28;20023;-59
2023/08/20 08:05:10;;;;;;;10.77;9.68;;;36.70;42.10;;;;;;5095195;28;20024;-59
2023/08/20 08:07:36;;;;;;;10.15;9.13;;;36.70;42.40;;;;;;5095134;28;20077;-59
2023/08/20 08:10:03;;;;;;;11.65;9.05;;;36.80;42.30;;;;;;5096182;28;20020;-59
2023/08/20 08:12:29;;;;;;;10.68;9.57;;;36.90;42.20;;;;;;5095750;28;20402;-59
2023/08/20 08:14:55;;;;;;;10.95;9.30;;;37.00;42.30;;;;;;5096086;28;20016;-59
2023/08/20 08:17:21;;;;;;;12.10;9.25;;;37.10;42.20;;;;;;5096126;28;20024;-59
2023/08/20 08:19:47;;;;;;;11.30;10.18;;;37.20;42.00;;;;;;5095824;28;20046;-59
2023/08/20 08:22:13;;;;;;;10.60;9.50;;;37.20;41.80;;;;;;5095948;28;20365;-59
2023/08/20 08:24:41;;;;;;;11.13;9.93;;;37.00;42.00;;;;;;5096239;28;20153;-59
2023/08/20 08:27:07;;;;;;;16.17;11.20;;;37.00;42.00;;;;;;5095956;28;20111;-59
2023/08/20 08:29:33;;;;;;;13.85;10.30;;;36.90;41.90;;;;;;5096128;28;20099;-59
2023/08/20 08:31:59;;;;;;;13.55;10.20;;;36.70;42.40;;;;;;5095811;28;20028;-59
2023/08/20 08:34:25;;;;;;;10.85;9.45;;;36.50;43.10;;;;;;5095761;28;20069;-59
2023/08/20 08:36:51;;;;;;;10.27;9.18;;;36.50;43.30;;;;;;5096073;28;20032;-59
2023/08/20 08:39:17;;;;;;;12.32;10.02;;;36.60;43.10;;;;;;5095514;28;20020;-61
2023/08/20 08:41:44;;;;;;;13.00;10.07;;;36.70;42.90;;;;;;5095726;28;20340;-59
2023/08/20 08:44:10;;;;;;;10.60;9.50;;;36.70;43.10;;;;;;5094467;28;20353;-59
2023/08/20 08:46:38;;;;;;;12.00;10.43;;;36.80;42.90;;;;;;5095940;28;20048;-60
2023/08/20 08:49:05;;;;;;;10.80;9.65;;;36.80;43.00;;;;;;5095215;28;20465;-59
2023/08/20 08:51:33;;;;;;;10.32;9.23;;;36.70;43.20;;;;;;5095329;28;20066;-59
2023/08/20 08:54:01;;;;;;;10.48;9.20;;;36.80;43.30;;;;;;5095305;28;20028;-59
2023/08/20 08:56:26;;;;;;;12.13;9.85;;;36.80;43.20;;;;;;5095258;28;20020;-59
2023/08/20 08:58:53;;;;;;;10.50;9.50;;;36.80;43.40;;;;;;5095290;28;20027;-60
2023/08/20 09:01:20;;;;;;;11.82;9.73;;;36.80;43.50;;;;;;5095535;28;20028;-59
2023/08/20 09:03:47;;;;;;;11.32;9.40;;;36.80;43.40;;;;;;5095192;28;20055;-60
2023/08/20 09:06:13;;;;;;;11.77;10.25;;;36.80;43.60;;;;;;5094192;28;20111;-60
2023/08/20 09:08:41;;;;;;;11.50;9.68;;;36.80;43.80;;;;;;5095440;28;20112;-59
2023/08/20 09:11:07;;;;;;;11.63;10.52;;;36.90;43.60;;;;;;5095180;28;20024;-59
2023/08/20 09:13:37;;;;;;;12.93;10.43;;;36.90;43.40;;;;;;5094933;28;20028;-59
2023/08/20 09:16:08;;;;;;;12.38;9.63;;;36.90;43.70;;;;;;5095695;28;20039;-59
2023/08/20 09:18:43;;;;;;;11.10;9.80;;;36.80;43.80;;;;;;5094481;28;20344;-60
2023/08/20 09:23:39;;;;;;;11.15;10.05;;;36.80;43.60;;;;;;5095554;28;20016;-59
2023/08/20 09:26:08;;;;;;;12.60;10.10;;;36.70;43.20;;;;;;5095351;28;20429;-59
2023/08/20 09:28:46;;;;;;;11.23;9.65;;;36.60;43.00;;;;;;5095088;28;20036;-59
2023/08/20 09:31:20;;;;;;;11.38;9.93;;;36.50;43.10;;;;;;5095058;28;20024;-59
2023/08/20 09:33:50;;;;;;;10.80;9.60;;;36.40;42.70;;;;;;5095382;28;20067;-59
2023/08/20 09:36:17;;;;;;;10.60;9.50;;;36.40;43.10;;;;;;5095056;28;20069;-59
2023/08/20 09:38:43;;;;;;;11.07;9.98;;;36.40;43.20;;;;;;5095513;28;20020;-59
2023/08/20 09:41:15;;;;;;;11.15;9.90;;;36.30;43.10;;;;;;5095504;28;20024;-59
2023/08/20 09:43:45;;;;;;;12.00;10.07;;;36.20;43.00;;;;;;5094869;28;20024;-59
2023/08/20 09:46:13;;;;;;;11.60;10.13;;;36.10;43.00;;;;;;5094876;28;20358;-59
2023/08/20 09:48:43;;;;;;;10.90;9.80;;;35.90;42.80;;;;;;5094905;28;20063;-59
2023/08/20 09:51:12;;;;;;;10.45;9.30;;;35.70;42.70;;;;;;5094236;28;20039;-59
2023/08/20 09:54:06;;;;;;;12.38;9.60;;;35.60;43.00;;;;;;5094708;28;20078;-59
2023/08/20 09:56:39;;;;;;;11.25;9.48;;;35.60;42.90;;;;;;5097191;28;20078;-59
2023/08/20 09:59:10;;;;;;;12.65;10.52;;;35.50;43.30;;;;;;5098826;28;20065;-59
2023/08/20 10:01:38;;;;;;;10.65;9.55;;;35.60;43.50;;;;;;5098836;28;20404;-59
2023/08/20 10:04:07;;;;;;;11.73;10.50;;;35.60;43.50;;;;;;5098442;28;20020;-59
2023/08/20 10:06:34;;;;;;;10.95;9.77;;;35.50;43.70;;;;;;5098325;28;20028;-59
2023/08/20 10:09:00;;;;;;;11.07;9.98;;;35.50;44.10;;;;;;5098309;28;20409;-59
2023/08/20 10:11:31;;;;;;;13.00;9.80;;;35.40;44.40;;;;;;5097399;28;20031;-59
2023/08/20 10:13:57;;;;;;;11.38;9.98;;;35.50;44.50;;;;;;5098076;28;20024;-59
2023/08/20 10:16:27;;;;;;;11.65;10.43;;;35.50;44.40;;;;;;5098418;28;20024;-59
2023/08/20 10:18:59;;;;;;;12.27;10.63;;;35.50;44.50;;;;;;5098138;28;20031;-59
2023/08/20 10:21:27;;;;;;;10.88;9.77;;;35.50;44.70;;;;;;5098074;28;20425;-59
2023/08/20 10:23:53;;;;;;;11.55;9.27;;;35.50;44.50;;;;;;5097982;28;20031;-59
2023/08/20 10:26:21;;;;;;;10.43;9.32;;;35.50;44.60;;;;;;5097956;28;20402;-60
2023/08/20 10:28:47;;;;;;;11.63;9.52;;;35.50;44.60;;;;;;5097835;28;20024;-59
2023/08/20 10:31:16;;;;;;;11.73;9.20;;;35.60;44.60;;;;;;5098458;28;20032;-59
2023/08/20 10:33:54;;;;;;;10.45;9.35;;;35.70;44.50;;;;;;5097682;28;20085;-60
2023/08/20 10:36:28;;;;;;;10.52;9.13;;;35.70;44.70;;;;;;5098054;28;20154;-59
2023/08/20 10:38:57;;;;;;;11.15;9.93;;;35.80;44.80;;;;;;5097659;28;20055;-60
2023/08/20 10:41:29;;;;;;;10.18;9.18;;;35.90;44.20;;;;;;5097651;28;20028;-60
2023/08/20 10:43:59;;;;;;;11.45;9.32;;;35.80;44.10;;;;;;5097583;28;20016;-59
2023/08/20 10:46:34;;;;;;;10.65;9.55;;;35.80;44.00;;;;;;5097818;28;20125;-60
2023/08/20 10:49:08;;;;;;;10.25;9.15;;;35.80;44.20;;;;;;5097483;28;20127;-59
2023/08/20 10:54:00;;;;;;;10.30;9.23;;;35.90;44.10;;;;;;5097922;28;20020;-59
2023/08/20 10:56:49;;;;;;;11.70;9.05;;;35.90;44.00;;;;;;5097742;28;20024;-59
2023/08/20 10:59:23;;;;;;;10.40;9.10;;;35.90;44.20;;;;;;5097622;28;20099;-59
2023/08/20 11:01:50;;;;;;;13.43;9.43;;;35.90;44.10;;;;;;5097596;28;20185;-61
2023/08/20 11:04:18;;;;;;;11.45;9.80;;;36.00;44.10;;;;;;5097235;28;20052;-59
2023/08/20 11:06:56;;;;;;;11.30;10.10;;;36.00;44.10;;;;;;5096488;28;20019;-61
2023/08/20 11:09:28;;;;;;;10.80;9.70;;;35.90;45.20;;;;;;5097094;28;20043;-59
2023/08/20 11:11:58;;;;;;;11.93;9.88;;;35.90;44.20;;;;;;5097018;28;20035;-61
2023/08/20 11:14:25;;;;;;;11.30;10.20;;;35.80;44.30;;;;;;5097037;28;20024;-61
2023/08/20 11:16:51;;;;;;;10.38;9.35;;;35.70;44.40;;;;;;5097318;28;20016;-61
2023/08/20 11:19:22;;;;;;;10.15;9.10;;;35.80;44.60;;;;;;5096012;28;20020;-61
2023/08/20 11:24:14;;;;;;;10.80;9.70;;;35.90;44.30;;;;;;5097603;28;20039;-61
2023/08/20 11:26:44;;;;;;;12.70;10.18;;;35.90;43.70;;;;;;5096819;28;20032;-61
2023/08/20 11:29:15;;;;;;;13.25;9.65;;;35.70;43.70;;;;;;5097054;28;20028;-61
2023/08/20 11:31:44;;;;;;;10.07;8.90;;;35.60;44.00;;;;;;5096600;28;20031;-61
2023/08/20 11:34:14;;;;;;;9.70;8.70;;;35.60;44.00;;;;;;5097121;28;20387;-59
2023/08/20 11:36:54;;;;;;;12.57;9.82;;;35.60;44.20;;;;;;5097224;28;20032;-61
2023/08/20 11:39:30;;;;;;;10.82;9.15;;;35.70;43.80;;;;;;5096859;28;20028;-61
2023/08/20 11:41:59;;;;;;;11.50;9.93;;;35.70;43.90;;;;;;5096748;28;20035;-61
2023/08/20 11:44:28;;;;;;;12.00;9.95;;;35.70;43.40;;;;;;5095535;28;20034;-61
2023/08/20 11:46:56;;;;;;;10.63;8.93;;;35.50;43.40;;;;;;5096625;28;20032;-61
2023/08/20 11:49:29;;;;;;;10.77;9.50;;;35.40;43.40;;;;;;5095758;28;20071;-61
2023/08/20 11:52:00;;;;;;;11.63;9.55;;;35.40;43.40;;;;;;5096199;28;20353;-61
2023/08/20 11:54:27;;;;;;;11.20;9.43;;;35.30;43.50;;;;;;5095236;28;20024;-61
2023/08/20 11:57:07;;;;;;;11.38;10.10;;;35.20;43.70;;;;;;5096462;28;20035;-61
2023/08/20 11:59:35;;;;;;;12.30;9.00;;;35.20;43.90;;;;;;5095096;28;20069;-61
2023/08/20 12:02:03;;;;;;;11.45;9.60;;;35.10;44.00;;;;;;5096569;28;20027;-61
2023/08/20 12:04:33;;;;;;;10.05;9.00;;;35.10;44.20;;;;;;5095093;28;20403;-60
2023/08/20 12:07:14;;;;;;;10.45;8.70;;;35.10;44.20;;;;;;5096416;28;20034;-61
2023/08/20 12:09:41;;;;;;;10.60;9.43;;;35.20;44.40;;;;;;5096350;28;20027;-61
2023/08/20 12:12:10;;;;;;;10.23;8.75;;;35.20;44.30;;;;;;5095847;28;20028;-61
2023/08/20 12:14:39;;;;;;;11.27;9.40;;;35.30;44.30;;;;;;5096386;28;20032;-61
2023/08/20 12:17:06;;;;;;;10.52;9.32;;;35.30;44.20;;;;;;5095750;28;20034;-61
2023/08/20 12:19:34;;;;;;;12.00;10.38;;;35.30;44.20;;;;;;5095665;28;20099;-60
2023/08/20 12:22:00;;;;;;;13.20;10.85;;;35.30;44.20;;;;;;5096146;28;20020;-61
2023/08/20 12:24:28;;;;;;;11.88;9.80;;;35.10;44.30;;;;;;5096355;28;20039;-60
2023/08/20 12:26:56;;;;;;;14.20;10.68;;;35.00;44.30;;;;;;5095685;28;20056;-61
2023/08/20 12:29:22;;;;;;;11.38;10.18;;;35.00;44.00;;;;;;5095690;28;20111;-60
2023/08/20 12:31:50;;;;;;;12.57;9.98;;;34.90;44.50;;;;;;5095639;28;20081;-61
2023/08/20 12:34:15;;;;;;;10.25;8.93;;;34.90;44.60;;;;;;5096140;28;20028;-60
2023/08/20 12:36:43;;;;;;;10.43;9.15;;;34.90;44.70;;;;;;5095586;28;20012;-61
2023/08/20 12:39:11;;;;;;;11.00;8.93;;;35.00;44.80;;;;;;5095613;28;20043;-61
2023/08/20 12:41:45;;;;;;;10.88;9.05;;;35.00;44.80;;;;;;5096030;28;20023;-61
2023/08/20 12:44:13;;;;;;;11.57;9.25;;;35.10;44.80;;;;;;5095822;28;20039;-61